Khulna, Bangladesh
Current Conditions -  °F | °C
As of 1:50 PM on Thursday 29 Jan 2015 (Local Time) from VGHS Reporting Station
Haze Haze  
Wind Chill: 82°   Ceiling: Unl
Heat Index: 82°   Visibility: 2.5mi
Dew Point: 57°   Wind: 8mph
Humidity: 42%   Direction: 330°NNW
Pressure: 29.94"   Gusts: NA
Location:  23.37°N, 89.5°E
Report Text: VGHS 290750Z 33007KT 4000 HZ NSC 28/14 Q1014 NOSIG
Loading
Personal Weather Stations






























Interactive Weather Map New forecast layout! Learn more

10-Day Weather Forecast

Advertisements
Track Severe Weather on mobile